sensor_id;sensor_type;location;lat;lon;timestamp;temperature;humidity
31979;DHT22;18502;43.574;1.276;2023-04-08T00:01:09;8.80;56.90
31979;DHT22;18502;43.574;1.276;2023-04-08T00:03:34;8.70;57.60
31979;DHT22;18502;43.574;1.276;2023-04-08T00:06:00;8.60;58.20
31979;DHT22;18502;43.574;1.276;2023-04-08T00:08:27;8.60;57.60
31979;DHT22;18502;43.574;1.276;2023-04-08T00:10:53;8.50;59.10
31979;DHT22;18502;43.574;1.276;2023-04-08T00:13:18;8.60;57.50
31979;DHT22;18502;43.574;1.276;2023-04-08T00:15:44;8.60;59.10
31979;DHT22;18502;43.574;1.276;2023-04-08T00:18:10;8.60;59.40
31979;DHT22;18502;43.574;1.276;2023-04-08T00:20:36;8.50;58.80
31979;DHT22;18502;43.574;1.276;2023-04-08T00:23:01;8.40;59.00
31979;DHT22;18502;43.574;1.276;2023-04-08T00:25:27;8.30;59.10
31979;DHT22;18502;43.574;1.276;2023-04-08T00:27:53;8.30;59.90
31979;DHT22;18502;43.574;1.276;2023-04-08T00:30:18;8.20;60.00
31979;DHT22;18502;43.574;1.276;2023-04-08T00:32:44;8.10;60.10
31979;DHT22;18502;43.574;1.276;2023-04-08T00:35:10;8.10;61.10
31979;DHT22;18502;43.574;1.276;2023-04-08T00:37:37;8.20;60.80
31979;DHT22;18502;43.574;1.276;2023-04-08T00:40:03;8.20;60.40
31979;DHT22;18502;43.574;1.276;2023-04-08T00:42:29;8.10;61.60
31979;DHT22;18502;43.574;1.276;2023-04-08T00:44:55;7.90;61.00
31979;DHT22;18502;43.574;1.276;2023-04-08T00:47:21;7.80;62.60
31979;DHT22;18502;43.574;1.276;2023-04-08T00:49:47;7.80;61.20
31979;DHT22;18502;43.574;1.276;2023-04-08T00:52:13;7.80;62.00
31979;DHT22;18502;43.574;1.276;2023-04-08T00:54:38;7.80;62.40
31979;DHT22;18502;43.574;1.276;2023-04-08T00:57:05;7.70;62.20
31979;DHT22;18502;43.574;1.276;2023-04-08T00:59:32;7.70;63.60
31979;DHT22;18502;43.574;1.276;2023-04-08T01:04:49;7.80;63.90
31979;DHT22;18502;43.574;1.276;2023-04-08T01:07:21;7.80;63.90
31979;DHT22;18502;43.574;1.276;2023-04-08T01:09:53;7.70;64.60
31979;DHT22;18502;43.574;1.276;2023-04-08T01:12:20;7.80;64.80
31979;DHT22;18502;43.574;1.276;2023-04-08T01:14:48;7.70;65.40
31979;DHT22;18502;43.574;1.276;2023-04-08T01:17:18;7.60;64.70
31979;DHT22;18502;43.574;1.276;2023-04-08T01:19:44;7.50;65.20
31979;DHT22;18502;43.574;1.276;2023-04-08T01:25:18;7.40;66.20
31979;DHT22;18502;43.574;1.276;2023-04-08T01:27:47;7.30;67.40
31979;DHT22;18502;43.574;1.276;2023-04-08T01:30:14;7.20;67.40
31979;DHT22;18502;43.574;1.276;2023-04-08T01:32:43;7.20;68.70
31979;DHT22;18502;43.574;1.276;2023-04-08T01:35:10;7.30;68.50
31979;DHT22;18502;43.574;1.276;2023-04-08T01:37:37;7.20;68.90
31979;DHT22;18502;43.574;1.276;2023-04-08T01:40:04;7.30;68.40
31979;DHT22;18502;43.574;1.276;2023-04-08T01:42:32;7.30;68.40
31979;DHT22;18502;43.574;1.276;2023-04-08T01:44:59;7.30;68.90
31979;DHT22;18502;43.574;1.276;2023-04-08T01:47:26;7.30;69.60
31979;DHT22;18502;43.574;1.276;2023-04-08T01:49:53;7.30;69.90
31979;DHT22;18502;43.574;1.276;2023-04-08T01:52:20;7.20;69.80
31979;DHT22;18502;43.574;1.276;2023-04-08T01:54:46;7.30;69.10
31979;DHT22;18502;43.574;1.276;2023-04-08T01:57:22;7.30;69.70
31979;DHT22;18502;43.574;1.276;2023-04-08T01:59:51;7.20;71.20
31979;DHT22;18502;43.574;1.276;2023-04-08T02:02:19;7.20;71.60
31979;DHT22;18502;43.574;1.276;2023-04-08T02:04:47;7.30;71.00
31979;DHT22;18502;43.574;1.276;2023-04-08T02:07:13;7.30;71.40
31979;DHT22;18502;43.574;1.276;2023-04-08T02:09:39;7.30;72.70
31979;DHT22;18502;43.574;1.276;2023-04-08T02:12:05;7.20;71.50
31979;DHT22;18502;43.574;1.276;2023-04-08T02:14:30;7.20;71.80
31979;DHT22;18502;43.574;1.276;2023-04-08T02:17:21;7.10;72.00
31979;DHT22;18502;43.574;1.276;2023-04-08T02:20:05;6.90;73.10
31979;DHT22;18502;43.574;1.276;2023-04-08T02:22:51;7.00;73.30
31979;DHT22;18502;43.574;1.276;2023-04-08T02:25:21;7.00;73.50
31979;DHT22;18502;43.574;1.276;2023-04-08T02:27:48;6.90;73.30
31979;DHT22;18502;43.574;1.276;2023-04-08T02:30:14;6.90;73.30
31979;DHT22;18502;43.574;1.276;2023-04-08T02:32:43;6.90;73.70
31979;DHT22;18502;43.574;1.276;2023-04-08T02:35:10;6.80;74.20
31979;DHT22;18502;43.574;1.276;2023-04-08T02:37:36;6.90;74.10
31979;DHT22;18502;43.574;1.276;2023-04-08T02:40:02;6.90;74.50
31979;DHT22;18502;43.574;1.276;2023-04-08T02:42:28;6.80;74.40
31979;DHT22;18502;43.574;1.276;2023-04-08T02:44:53;6.80;75.30
31979;DHT22;18502;43.574;1.276;2023-04-08T02:47:19;6.80;75.60
31979;DHT22;18502;43.574;1.276;2023-04-08T02:49:45;6.80;73.90
31979;DHT22;18502;43.574;1.276;2023-04-08T02:52:10;6.80;75.20
31979;DHT22;18502;43.574;1.276;2023-04-08T02:54:36;6.90;75.70
31979;DHT22;18502;43.574;1.276;2023-04-08T02:57:02;6.80;74.50
31979;DHT22;18502;43.574;1.276;2023-04-08T02:59:27;6.80;75.20
31979;DHT22;18502;43.574;1.276;2023-04-08T03:01:53;6.90;75.50
31979;DHT22;18502;43.574;1.276;2023-04-08T03:04:18;6.70;75.90
31979;DHT22;18502;43.574;1.276;2023-04-08T03:06:44;6.60;76.50
31979;DHT22;18502;43.574;1.276;2023-04-08T03:09:10;6.50;76.60
31979;DHT22;18502;43.574;1.276;2023-04-08T03:11:35;6.50;77.50
31979;DHT22;18502;43.574;1.276;2023-04-08T03:14:01;6.40;78.00
31979;DHT22;18502;43.574;1.276;2023-04-08T03:16:27;6.40;76.60
31979;DHT22;18502;43.574;1.276;2023-04-08T03:18:52;6.50;76.90
31979;DHT22;18502;43.574;1.276;2023-04-08T03:21:18;6.40;77.40
31979;DHT22;18502;43.574;1.276;2023-04-08T03:23:44;6.40;77.80
31979;DHT22;18502;43.574;1.276;2023-04-08T03:26:10;6.40;78.00
31979;DHT22;18502;43.574;1.276;2023-04-08T03:28:36;6.30;78.50
31979;DHT22;18502;43.574;1.276;2023-04-08T03:31:03;6.20;78.40
31979;DHT22;18502;43.574;1.276;2023-04-08T03:33:29;6.20;78.70
31979;DHT22;18502;43.574;1.276;2023-04-08T03:35:54;6.10;78.40
31979;DHT22;18502;43.574;1.276;2023-04-08T03:38:20;6.00;78.90
31979;DHT22;18502;43.574;1.276;2023-04-08T03:40:46;6.00;79.20
31979;DHT22;18502;43.574;1.276;2023-04-08T03:43:12;6.10;79.60
31979;DHT22;18502;43.574;1.276;2023-04-08T03:45:38;6.00;80.00
31979;DHT22;18502;43.574;1.276;2023-04-08T03:48:04;5.90;80.20
31979;DHT22;18502;43.574;1.276;2023-04-08T03:50:30;5.90;80.10
31979;DHT22;18502;43.574;1.276;2023-04-08T03:52:55;5.90;80.40
31979;DHT22;18502;43.574;1.276;2023-04-08T03:55:21;6.00;80.30
31979;DHT22;18502;43.574;1.276;2023-04-08T03:57:46;5.90;80.40
31979;DHT22;18502;43.574;1.276;2023-04-08T04:00:12;5.90;80.30
31979;DHT22;18502;43.574;1.276;2023-04-08T04:02:38;6.00;80.60
31979;DHT22;18502;43.574;1.276;2023-04-08T04:05:04;5.90;80.60
31979;DHT22;18502;43.574;1.276;2023-04-08T04:07:30;5.90;79.80
31979;DHT22;18502;43.574;1.276;2023-04-08T04:09:56;5.80;81.10
31979;DHT22;18502;43.574;1.276;2023-04-08T04:12:22;5.70;81.50
31979;DHT22;18502;43.574;1.276;2023-04-08T04:14:48;5.70;81.80
31979;DHT22;18502;43.574;1.276;2023-04-08T04:17:13;5.60;80.00
31979;DHT22;18502;43.574;1.276;2023-04-08T04:19:39;5.60;81.30
31979;DHT22;18502;43.574;1.276;2023-04-08T04:22:05;5.50;81.50
31979;DHT22;18502;43.574;1.276;2023-04-08T04:24:31;5.50;82.00
31979;DHT22;18502;43.574;1.276;2023-04-08T04:26:56;5.40;81.80
31979;DHT22;18502;43.574;1.276;2023-04-08T04:29:22;5.30;81.00
31979;DHT22;18502;43.574;1.276;2023-04-08T04:31:48;5.20;81.90
31979;DHT22;18502;43.574;1.276;2023-04-08T04:34:13;5.20;82.70
31979;DHT22;18502;43.574;1.276;2023-04-08T04:36:39;5.10;83.10
31979;DHT22;18502;43.574;1.276;2023-04-08T04:39:05;5.20;82.40
31979;DHT22;18502;43.574;1.276;2023-04-08T04:41:31;5.00;83.10
31979;DHT22;18502;43.574;1.276;2023-04-08T04:43:56;5.00;83.30
31979;DHT22;18502;43.574;1.276;2023-04-08T04:46:22;4.90;83.60
31979;DHT22;18502;43.574;1.276;2023-04-08T04:48:48;4.90;83.70
31979;DHT22;18502;43.574;1.276;2023-04-08T04:51:13;5.00;83.20
31979;DHT22;18502;43.574;1.276;2023-04-08T04:53:39;4.90;84.20
31979;DHT22;18502;43.574;1.276;2023-04-08T04:56:05;4.90;84.10
31979;DHT22;18502;43.574;1.276;2023-04-08T04:58:30;4.90;83.90
31979;DHT22;18502;43.574;1.276;2023-04-08T05:00:57;4.90;84.60
31979;DHT22;18502;43.574;1.276;2023-04-08T05:03:22;4.90;85.20
31979;DHT22;18502;43.574;1.276;2023-04-08T05:05:52;4.90;85.30
31979;DHT22;18502;43.574;1.276;2023-04-08T05:08:18;4.90;85.10
31979;DHT22;18502;43.574;1.276;2023-04-08T05:10:44;4.90;85.00
31979;DHT22;18502;43.574;1.276;2023-04-08T05:13:10;4.90;84.20
31979;DHT22;18502;43.574;1.276;2023-04-08T05:15:35;4.90;83.70
31979;DHT22;18502;43.574;1.276;2023-04-08T05:18:01;4.80;84.80
31979;DHT22;18502;43.574;1.276;2023-04-08T05:20:27;4.80;84.40
31979;DHT22;18502;43.574;1.276;2023-04-08T05:22:53;4.80;85.50
31979;DHT22;18502;43.574;1.276;2023-04-08T05:25:18;4.80;83.80
31979;DHT22;18502;43.574;1.276;2023-04-08T05:27:44;4.80;84.70
31979;DHT22;18502;43.574;1.276;2023-04-08T05:30:11;4.70;85.40
31979;DHT22;18502;43.574;1.276;2023-04-08T05:32:37;4.80;85.10
31979;DHT22;18502;43.574;1.276;2023-04-08T05:35:03;4.80;84.20
31979;DHT22;18502;43.574;1.276;2023-04-08T05:37:29;4.80;85.30
31979;DHT22;18502;43.574;1.276;2023-04-08T05:39:54;4.80;85.70
31979;DHT22;18502;43.574;1.276;2023-04-08T05:42:20;4.80;85.40
31979;DHT22;18502;43.574;1.276;2023-04-08T05:44:46;4.80;85.00
31979;DHT22;18502;43.574;1.276;2023-04-08T05:47:12;4.90;84.50
31979;DHT22;18502;43.574;1.276;2023-04-08T05:49:39;4.90;85.30
31979;DHT22;18502;43.574;1.276;2023-04-08T05:52:05;5.00;85.30
31979;DHT22;18502;43.574;1.276;2023-04-08T05:54:31;5.00;86.00
31979;DHT22;18502;43.574;1.276;2023-04-08T05:56:57;5.00;86.00
31979;DHT22;18502;43.574;1.276;2023-04-08T05:59:22;5.10;85.20
31979;DHT22;18502;43.574;1.276;2023-04-08T06:01:48;5.20;85.20
31979;DHT22;18502;43.574;1.276;2023-04-08T06:04:14;5.30;85.80
31979;DHT22;18502;43.574;1.276;2023-04-08T06:06:42;5.30;86.30
31979;DHT22;18502;43.574;1.276;2023-04-08T06:09:07;5.40;85.40
31979;DHT22;18502;43.574;1.276;2023-04-08T06:11:34;5.50;85.80
31979;DHT22;18502;43.574;1.276;2023-04-08T06:14:00;5.60;86.40
31979;DHT22;18502;43.574;1.276;2023-04-08T06:16:25;5.70;85.60
31979;DHT22;18502;43.574;1.276;2023-04-08T06:18:51;5.90;85.10
31979;DHT22;18502;43.574;1.276;2023-04-08T06:21:17;5.90;85.00
31979;DHT22;18502;43.574;1.276;2023-04-08T06:23:43;6.00;85.10
31979;DHT22;18502;43.574;1.276;2023-04-08T06:26:08;6.10;84.90
31979;DHT22;18502;43.574;1.276;2023-04-08T06:28:34;6.20;83.80
31979;DHT22;18502;43.574;1.276;2023-04-08T06:31:00;6.30;83.40
31979;DHT22;18502;43.574;1.276;2023-04-08T06:33:26;6.50;83.60
31979;DHT22;18502;43.574;1.276;2023-04-08T06:35:59;6.60;83.30
31979;DHT22;18502;43.574;1.276;2023-04-08T06:38:25;6.70;82.70
31979;DHT22;18502;43.574;1.276;2023-04-08T06:40:51;6.80;82.30
31979;DHT22;18502;43.574;1.276;2023-04-08T06:43:16;6.90;82.40
31979;DHT22;18502;43.574;1.276;2023-04-08T06:45:42;6.90;82.40
31979;DHT22;18502;43.574;1.276;2023-04-08T06:48:07;7.10;82.00
31979;DHT22;18502;43.574;1.276;2023-04-08T06:50:33;7.10;82.20
31979;DHT22;18502;43.574;1.276;2023-04-08T06:52:59;7.30;82.40
31979;DHT22;18502;43.574;1.276;2023-04-08T06:55:25;7.40;82.30
31979;DHT22;18502;43.574;1.276;2023-04-08T06:57:51;7.60;82.00
31979;DHT22;18502;43.574;1.276;2023-04-08T07:00:17;7.70;81.40
31979;DHT22;18502;43.574;1.276;2023-04-08T07:02:42;7.80;80.80
31979;DHT22;18502;43.574;1.276;2023-04-08T07:05:09;7.90;80.60
31979;DHT22;18502;43.574;1.276;2023-04-08T07:07:35;8.00;79.50
31979;DHT22;18502;43.574;1.276;2023-04-08T07:10:01;8.30;79.30
31979;DHT22;18502;43.574;1.276;2023-04-08T07:12:27;8.40;78.50
31979;DHT22;18502;43.574;1.276;2023-04-08T07:14:53;8.50;78.20
31979;DHT22;18502;43.574;1.276;2023-04-08T07:17:18;8.60;77.40
31979;DHT22;18502;43.574;1.276;2023-04-08T07:19:44;8.70;77.00
31979;DHT22;18502;43.574;1.276;2023-04-08T07:22:10;8.90;76.20
31979;DHT22;18502;43.574;1.276;2023-04-08T07:24:36;9.00;75.30
31979;DHT22;18502;43.574;1.276;2023-04-08T07:27:01;9.10;75.00
31979;DHT22;18502;43.574;1.276;2023-04-08T07:29:27;9.30;75.20
31979;DHT22;18502;43.574;1.276;2023-04-08T07:31:53;9.40;74.30
31979;DHT22;18502;43.574;1.276;2023-04-08T07:34:18;9.60;74.10
31979;DHT22;18502;43.574;1.276;2023-04-08T07:36:44;9.70;73.90
31979;DHT22;18502;43.574;1.276;2023-04-08T07:39:10;9.80;72.70
31979;DHT22;18502;43.574;1.276;2023-04-08T07:41:36;10.00;72.70
31979;DHT22;18502;43.574;1.276;2023-04-08T07:44:01;10.20;72.80
31979;DHT22;18502;43.574;1.276;2023-04-08T07:46:27;10.20;69.70
31979;DHT22;18502;43.574;1.276;2023-04-08T07:48:52;10.20;70.30
31979;DHT22;18502;43.574;1.276;2023-04-08T07:51:18;10.40;70.10
